sensor_id;sensor_type;location;lat;lon;timestamp;P1;durP1;ratioP1;P2;durP2;ratioP2
26502;SDS011;14177;51.520;6.764;2023-08-06T00:02:06;3.05;;;2.17;;
26502;SDS011;14177;51.520;6.764;2023-08-06T00:04:33;3.05;;;2.08;;
26502;SDS011;14177;51.520;6.764;2023-08-06T00:07:00;3.45;;;2.40;;
26502;SDS011;14177;51.520;6.764;2023-08-06T00:09:27;4.20;;;2.17;;
26502;SDS011;14177;51.520;6.764;2023-08-06T00:11:53;2.78;;;2.10;;
26502;SDS011;14177;51.520;6.764;2023-08-06T00:14:20;3.50;;;2.15;;
26502;SDS011;14177;51.520;6.764;2023-08-06T00:16:47;2.88;;;2.25;;
26502;SDS011;14177;51.520;6.764;2023-08-06T00:19:14;4.95;;;1.90;;
26502;SDS011;14177;51.520;6.764;2023-08-06T00:21:41;2.80;;;1.90;;
26502;SDS011;14177;51.520;6.764;2023-08-06T00:24:08;4.20;;;2.22;;
26502;SDS011;14177;51.520;6.764;2023-08-06T00:26:35;4.65;;;2.20;;
26502;SDS011;14177;51.520;6.764;2023-08-06T00:29:02;3.17;;;2.00;;
26502;SDS011;14177;51.520;6.764;2023-08-06T00:31:29;2.08;;;1.65;;
26502;SDS011;14177;51.520;6.764;2023-08-06T00:33:56;3.47;;;2.00;;
26502;SDS011;14177;51.520;6.764;2023-08-06T00:36:23;2.72;;;1.90;;
26502;SDS011;14177;51.520;6.764;2023-08-06T00:38:50;5.30;;;2.17;;
26502;SDS011;14177;51.520;6.764;2023-08-06T00:41:17;5.50;;;2.60;;
26502;SDS011;14177;51.520;6.764;2023-08-06T00:43:44;2.65;;;2.10;;
26502;SDS011;14177;51.520;6.764;2023-08-06T00:46:11;3.70;;;2.17;;
26502;SDS011;14177;51.520;6.764;2023-08-06T00:48:38;5.25;;;2.30;;
26502;SDS011;14177;51.520;6.764;2023-08-06T00:51:09;2.95;;;2.00;;
26502;SDS011;14177;51.520;6.764;2023-08-06T00:53:37;6.75;;;2.20;;
26502;SDS011;14177;51.520;6.764;2023-08-06T00:56:06;3.17;;;2.22;;
26502;SDS011;14177;51.520;6.764;2023-08-06T00:58:35;3.08;;;2.10;;
26502;SDS011;14177;51.520;6.764;2023-08-06T01:01:04;4.57;;;2.22;;
26502;SDS011;14177;51.520;6.764;2023-08-06T01:03:31;5.80;;;2.25;;
26502;SDS011;14177;51.520;6.764;2023-08-06T01:06:00;2.78;;;2.00;;
26502;SDS011;14177;51.520;6.764;2023-08-06T01:08:38;3.42;;;2.15;;
26502;SDS011;14177;51.520;6.764;2023-08-06T01:11:26;3.67;;;2.20;;
26502;SDS011;14177;51.520;6.764;2023-08-06T01:14:22;3.20;;;2.25;;
26502;SDS011;14177;51.520;6.764;2023-08-06T01:17:11;3.20;;;2.15;;
26502;SDS011;14177;51.520;6.764;2023-08-06T01:19:40;4.55;;;2.00;;
26502;SDS011;14177;51.520;6.764;2023-08-06T01:22:07;2.67;;;2.25;;
26502;SDS011;14177;51.520;6.764;2023-08-06T01:24:34;3.00;;;2.17;;
26502;SDS011;14177;51.520;6.764;2023-08-06T01:27:11;4.13;;;2.22;;
26502;SDS011;14177;51.520;6.764;2023-08-06T01:30:06;5.95;;;2.40;;
26502;SDS011;14177;51.520;6.764;2023-08-06T01:32:49;4.68;;;2.65;;
26502;SDS011;14177;51.520;6.764;2023-08-06T01:35:26;3.97;;;2.55;;
26502;SDS011;14177;51.520;6.764;2023-08-06T01:37:58;4.10;;;2.38;;
26502;SDS011;14177;51.520;6.764;2023-08-06T01:40:28;3.72;;;2.40;;
26502;SDS011;14177;51.520;6.764;2023-08-06T01:42:56;4.93;;;2.42;;
26502;SDS011;14177;51.520;6.764;2023-08-06T01:45:23;4.90;;;2.13;;
26502;SDS011;14177;51.520;6.764;2023-08-06T01:47:50;3.28;;;2.20;;
26502;SDS011;14177;51.520;6.764;2023-08-06T01:50:17;5.22;;;2.40;;
26502;SDS011;14177;51.520;6.764;2023-08-06T01:52:44;5.55;;;2.70;;
26502;SDS011;14177;51.520;6.764;2023-08-06T01:55:11;6.72;;;2.40;;
26502;SDS011;14177;51.520;6.764;2023-08-06T01:57:37;4.78;;;2.40;;
26502;SDS011;14177;51.520;6.764;2023-08-06T02:00:05;10.75;;;2.88;;
26502;SDS011;14177;51.520;6.764;2023-08-06T02:02:38;3.78;;;2.30;;
26502;SDS011;14177;51.520;6.764;2023-08-06T02:05:08;6.38;;;2.60;;
26502;SDS011;14177;51.520;6.764;2023-08-06T02:07:35;4.00;;;2.58;;
26502;SDS011;14177;51.520;6.764;2023-08-06T02:10:04;4.43;;;2.13;;
26502;SDS011;14177;51.520;6.764;2023-08-06T02:12:33;6.05;;;2.40;;
26502;SDS011;14177;51.520;6.764;2023-08-06T02:15:00;3.95;;;2.10;;
26502;SDS011;14177;51.520;6.764;2023-08-06T02:17:27;4.57;;;2.70;;
26502;SDS011;14177;51.520;6.764;2023-08-06T02:19:54;3.80;;;2.05;;
26502;SDS011;14177;51.520;6.764;2023-08-06T02:22:21;5.93;;;2.20;;
26502;SDS011;14177;51.520;6.764;2023-08-06T02:24:49;4.03;;;2.45;;
26502;SDS011;14177;51.520;6.764;2023-08-06T02:27:16;6.00;;;2.38;;
26502;SDS011;14177;51.520;6.764;2023-08-06T02:29:43;3.53;;;2.03;;
26502;SDS011;14177;51.520;6.764;2023-08-06T02:32:11;2.65;;;1.98;;
26502;SDS011;14177;51.520;6.764;2023-08-06T02:34:38;4.88;;;2.28;;
26502;SDS011;14177;51.520;6.764;2023-08-06T02:37:05;3.60;;;2.17;;
26502;SDS011;14177;51.520;6.764;2023-08-06T02:39:32;4.05;;;2.20;;
26502;SDS011;14177;51.520;6.764;2023-08-06T02:42:00;4.90;;;2.05;;
26502;SDS011;14177;51.520;6.764;2023-08-06T02:44:30;5.22;;;2.22;;
26502;SDS011;14177;51.520;6.764;2023-08-06T02:46:57;4.70;;;1.90;;
26502;SDS011;14177;51.520;6.764;2023-08-06T02:49:24;5.30;;;2.13;;
26502;SDS011;14177;51.520;6.764;2023-08-06T02:51:52;2.78;;;1.88;;
26502;SDS011;14177;51.520;6.764;2023-08-06T02:54:19;5.40;;;2.58;;
26502;SDS011;14177;51.520;6.764;2023-08-06T02:56:46;3.50;;;2.17;;
26502;SDS011;14177;51.520;6.764;2023-08-06T02:59:22;2.17;;;1.77;;
26502;SDS011;14177;51.520;6.764;2023-08-06T03:02:03;4.97;;;2.33;;
26502;SDS011;14177;51.520;6.764;2023-08-06T03:04:49;4.70;;;2.38;;
26502;SDS011;14177;51.520;6.764;2023-08-06T03:07:18;3.20;;;2.38;;
26502;SDS011;14177;51.520;6.764;2023-08-06T03:09:52;3.60;;;2.00;;
26502;SDS011;14177;51.520;6.764;2023-08-06T03:12:20;4.60;;;2.38;;
26502;SDS011;14177;51.520;6.764;2023-08-06T03:14:47;3.17;;;2.10;;
26502;SDS011;14177;51.520;6.764;2023-08-06T03:17:15;5.90;;;2.50;;
26502;SDS011;14177;51.520;6.764;2023-08-06T03:19:43;3.10;;;2.10;;
26502;SDS011;14177;51.520;6.764;2023-08-06T03:22:11;4.47;;;2.20;;
26502;SDS011;14177;51.520;6.764;2023-08-06T03:24:38;3.50;;;2.20;;
26502;SDS011;14177;51.520;6.764;2023-08-06T03:27:06;3.67;;;2.20;;
26502;SDS011;14177;51.520;6.764;2023-08-06T03:29:36;4.05;;;2.20;;
26502;SDS011;14177;51.520;6.764;2023-08-06T03:32:03;4.72;;;2.60;;
26502;SDS011;14177;51.520;6.764;2023-08-06T03:34:30;4.32;;;2.40;;
26502;SDS011;14177;51.520;6.764;2023-08-06T03:36:57;4.85;;;2.58;;
26502;SDS011;14177;51.520;6.764;2023-08-06T03:39:26;6.40;;;2.45;;
26502;SDS011;14177;51.520;6.764;2023-08-06T03:41:53;4.88;;;2.65;;
26502;SDS011;14177;51.520;6.764;2023-08-06T03:44:20;4.43;;;2.20;;
26502;SDS011;14177;51.520;6.764;2023-08-06T03:46:47;4.60;;;2.35;;
26502;SDS011;14177;51.520;6.764;2023-08-06T03:49:14;5.13;;;2.20;;
26502;SDS011;14177;51.520;6.764;2023-08-06T03:51:41;3.63;;;2.47;;
26502;SDS011;14177;51.520;6.764;2023-08-06T03:54:09;3.75;;;2.60;;
26502;SDS011;14177;51.520;6.764;2023-08-06T03:56:36;3.15;;;2.33;;
26502;SDS011;14177;51.520;6.764;2023-08-06T03:59:02;7.63;;;2.47;;
26502;SDS011;14177;51.520;6.764;2023-08-06T04:01:29;4.22;;;2.40;;
26502;SDS011;14177;51.520;6.764;2023-08-06T04:03:56;3.03;;;2.22;;
26502;SDS011;14177;51.520;6.764;2023-08-06T04:06:23;5.43;;;2.00;;
26502;SDS011;14177;51.520;6.764;2023-08-06T04:08:51;5.18;;;2.45;;
26502;SDS011;14177;51.520;6.764;2023-08-06T04:11:18;4.03;;;2.42;;
26502;SDS011;14177;51.520;6.764;2023-08-06T04:13:45;6.10;;;2.80;;
26502;SDS011;14177;51.520;6.764;2023-08-06T04:16:12;8.07;;;2.22;;
26502;SDS011;14177;51.520;6.764;2023-08-06T04:18:41;5.78;;;2.33;;
26502;SDS011;14177;51.520;6.764;2023-08-06T04:21:08;4.65;;;2.10;;
26502;SDS011;14177;51.520;6.764;2023-08-06T04:23:35;4.45;;;2.47;;
26502;SDS011;14177;51.520;6.764;2023-08-06T04:26:05;4.45;;;2.22;;
26502;SDS011;14177;51.520;6.764;2023-08-06T04:28:34;2.92;;;2.10;;
26502;SDS011;14177;51.520;6.764;2023-08-06T04:31:01;4.60;;;1.85;;
26502;SDS011;14177;51.520;6.764;2023-08-06T04:33:30;6.65;;;1.95;;
26502;SDS011;14177;51.520;6.764;2023-08-06T04:36:01;4.75;;;1.98;;
26502;SDS011;14177;51.520;6.764;2023-08-06T04:38:28;4.97;;;2.35;;
26502;SDS011;14177;51.520;6.764;2023-08-06T04:40:56;5.40;;;2.33;;
26502;SDS011;14177;51.520;6.764;2023-08-06T04:43:24;4.60;;;2.30;;
26502;SDS011;14177;51.520;6.764;2023-08-06T04:45:52;2.78;;;2.10;;
26502;SDS011;14177;51.520;6.764;2023-08-06T04:48:21;3.58;;;2.40;;
26502;SDS011;14177;51.520;6.764;2023-08-06T04:50:49;3.83;;;2.42;;
26502;SDS011;14177;51.520;6.764;2023-08-06T04:53:17;4.65;;;2.30;;
26502;SDS011;14177;51.520;6.764;2023-08-06T04:55:44;5.25;;;2.70;;
26502;SDS011;14177;51.520;6.764;2023-08-06T04:58:12;2.88;;;2.20;;
26502;SDS011;14177;51.520;6.764;2023-08-06T05:00:39;3.28;;;2.40;;
26502;SDS011;14177;51.520;6.764;2023-08-06T05:03:06;7.35;;;2.33;;
26502;SDS011;14177;51.520;6.764;2023-08-06T05:05:33;5.55;;;2.25;;
26502;SDS011;14177;51.520;6.764;2023-08-06T05:08:00;4.85;;;2.38;;
26502;SDS011;14177;51.520;6.764;2023-08-06T05:10:28;3.92;;;2.35;;
26502;SDS011;14177;51.520;6.764;2023-08-06T05:12:55;4.45;;;2.50;;
26502;SDS011;14177;51.520;6.764;2023-08-06T05:15:21;4.47;;;2.50;;
26502;SDS011;14177;51.520;6.764;2023-08-06T05:17:49;4.13;;;2.45;;
26502;SDS011;14177;51.520;6.764;2023-08-06T05:20:16;4.80;;;2.40;;
26502;SDS011;14177;51.520;6.764;2023-08-06T05:22:43;3.63;;;2.17;;
26502;SDS011;14177;51.520;6.764;2023-08-06T05:25:12;3.17;;;2.33;;
26502;SDS011;14177;51.520;6.764;2023-08-06T05:27:40;4.40;;;2.15;;
26502;SDS011;14177;51.520;6.764;2023-08-06T05:30:07;4.05;;;2.25;;
26502;SDS011;14177;51.520;6.764;2023-08-06T05:32:35;6.68;;;2.10;;
26502;SDS011;14177;51.520;6.764;2023-08-06T05:35:02;4.50;;;2.22;;
26502;SDS011;14177;51.520;6.764;2023-08-06T05:37:30;7.15;;;2.28;;
26502;SDS011;14177;51.520;6.764;2023-08-06T05:39:57;6.22;;;1.90;;
26502;SDS011;14177;51.520;6.764;2023-08-06T05:42:24;3.03;;;1.73;;
26502;SDS011;14177;51.520;6.764;2023-08-06T05:44:50;3.95;;;2.08;;
26502;SDS011;14177;51.520;6.764;2023-08-06T05:47:17;3.05;;;2.03;;
26502;SDS011;14177;51.520;6.764;2023-08-06T05:49:46;3.85;;;2.22;;
26502;SDS011;14177;51.520;6.764;2023-08-06T05:52:13;4.25;;;2.58;;
26502;SDS011;14177;51.520;6.764;2023-08-06T05:54:40;4.30;;;2.28;;
26502;SDS011;14177;51.520;6.764;2023-08-06T05:57:07;4.68;;;2.67;;
26502;SDS011;14177;51.520;6.764;2023-08-06T05:59:33;5.05;;;2.42;;
26502;SDS011;14177;51.520;6.764;2023-08-06T06:02:00;4.38;;;2.00;;
26502;SDS011;14177;51.520;6.764;2023-08-06T06:04:28;3.97;;;2.05;;
26502;SDS011;14177;51.520;6.764;2023-08-06T06:06:55;7.63;;;2.55;;
26502;SDS011;14177;51.520;6.764;2023-08-06T06:09:22;3.33;;;2.08;;
26502;SDS011;14177;51.520;6.764;2023-08-06T06:11:49;3.03;;;2.28;;
26502;SDS011;14177;51.520;6.764;2023-08-06T06:14:19;5.70;;;2.30;;
26502;SDS011;14177;51.520;6.764;2023-08-06T06:16:46;6.13;;;2.30;;
26502;SDS011;14177;51.520;6.764;2023-08-06T06:19:13;6.85;;;2.13;;
26502;SDS011;14177;51.520;6.764;2023-08-06T06:21:40;3.08;;;2.05;;
26502;SDS011;14177;51.520;6.764;2023-08-06T06:24:08;4.32;;;1.90;;
26502;SDS011;14177;51.520;6.764;2023-08-06T06:26:34;3.40;;;1.83;;
26502;SDS011;14177;51.520;6.764;2023-08-06T06:29:01;5.28;;;1.63;;
26502;SDS011;14177;51.520;6.764;2023-08-06T06:31:31;2.53;;;1.50;;
26502;SDS011;14177;51.520;6.764;2023-08-06T06:33:58;3.08;;;1.52;;
26502;SDS011;14177;51.520;6.764;2023-08-06T06:36:25;2.92;;;1.50;;
26502;SDS011;14177;51.520;6.764;2023-08-06T06:38:52;2.38;;;1.63;;
26502;SDS011;14177;51.520;6.764;2023-08-06T06:41:19;4.05;;;1.80;;
26502;SDS011;14177;51.520;6.764;2023-08-06T06:43:46;3.63;;;1.67;;
26502;SDS011;14177;51.520;6.764;2023-08-06T06:46:13;5.97;;;1.98;;
26502;SDS011;14177;51.520;6.764;2023-08-06T06:48:40;2.78;;;1.92;;
26502;SDS011;14177;51.520;6.764;2023-08-06T06:51:07;4.32;;;1.73;;
26502;SDS011;14177;51.520;6.764;2023-08-06T06:53:34;6.35;;;1.63;;
26502;SDS011;14177;51.520;6.764;2023-08-06T06:56:01;6.35;;;1.77;;
26502;SDS011;14177;51.520;6.764;2023-08-06T06:58:33;3.55;;;1.60;;
26502;SDS011;14177;51.520;6.764;2023-08-06T07:01:00;4.18;;;1.90;;
26502;SDS011;14177;51.520;6.764;2023-08-06T07:03:27;1.90;;;1.52;;
26502;SDS011;14177;51.520;6.764;2023-08-06T07:05:57;3.03;;;1.60;;
26502;SDS011;14177;51.520;6.764;2023-08-06T07:08:25;4.43;;;1.70;;
26502;SDS011;14177;51.520;6.764;2023-08-06T07:10:59;3.67;;;1.73;;
26502;SDS011;14177;51.520;6.764;2023-08-06T07:13:30;2.28;;;1.42;;
26502;SDS011;14177;51.520;6.764;2023-08-06T07:15:59;6.03;;;1.75;;
26502;SDS011;14177;51.520;6.764;2023-08-06T07:18:26;4.88;;;2.08;;
26502;SDS011;14177;51.520;6.764;2023-08-06T07:20:53;3.75;;;1.73;;
26502;SDS011;14177;51.520;6.764;2023-08-06T07:23:22;2.55;;;1.45;;
26502;SDS011;14177;51.520;6.764;2023-08-06T07:25:51;4.38;;;1.80;;
26502;SDS011;14177;51.520;6.764;2023-08-06T07:28:19;2.00;;;1.48;;
26502;SDS011;14177;51.520;6.764;2023-08-06T07:30:46;4.25;;;1.70;;
26502;SDS011;14177;51.520;6.764;2023-08-06T07:33:14;6.47;;;2.05;;
26502;SDS011;14177;51.520;6.764;2023-08-06T07:35:41;2.95;;;1.73;;
26502;SDS011;14177;51.520;6.764;2023-08-06T07:38:09;2.50;;;1.60;;
26502;SDS011;14177;51.520;6.764;2023-08-06T07:40:36;2.60;;;1.50;;
26502;SDS011;14177;51.520;6.764;2023-08-06T07:43:03;2.90;;;1.95;;
26502;SDS011;14177;51.520;6.764;2023-08-06T07:45:34;5.03;;;1.60;;
26502;SDS011;14177;51.520;6.764;2023-08-06T07:48:02;5.13;;;2.50;;
26502;SDS011;14177;51.520;6.764;2023-08-06T07:50:30;4.70;;;2.67;;
26502;SDS011;14177;51.520;6.764;2023-08-06T07:52:57;5.55;;;2.92;;
26502;SDS011;14177;51.520;6.764;2023-08-06T07:55:25;6.95;;;3.40;;
26502;SDS011;14177;51.520;6.764;2023-08-06T07:57:52;7.28;;;3.30;;
26502;SDS011;14177;51.520;6.764;2023-08-06T08:00:20;6.53;;;3.22;;
26502;SDS011;14177;51.520;6.764;2023-08-06T08:02:47;5.32;;;3.13;;
26502;SDS011;14177;51.520;6.764;2023-08-06T08:05:14;6.03;;;3.53;;
26502;SDS011;14177;51.520;6.764;2023-08-06T08:07:42;7.93;;;3.30;;
26502;SDS011;14177;51.520;6.764;2023-08-06T08:10:10;7.38;;;3.03;;
26502;SDS011;14177;51.520;6.764;2023-08-06T08:12:37;6.38;;;2.80;;
26502;SDS011;14177;51.520;6.764;2023-08-06T08:15:04;5.13;;;2.97;;
26502;SDS011;14177;51.520;6.764;2023-08-06T08:17:32;7.35;;;3.05;;
26502;SDS011;14177;51.520;6.764;2023-08-06T08:20:00;5.28;;;2.75;;
26502;SDS011;14177;51.520;6.764;2023-08-06T08:22:28;8.57;;;3.00;;
26502;SDS011;14177;51.520;6.764;2023-08-06T08:24:54;4.45;;;2.65;;
26502;SDS011;14177;51.520;6.764;2023-08-06T08:27:21;5.35;;;2.83;;
26502;SDS011;14177;51.520;6.764;2023-08-06T08:29:48;5.75;;;2.42;;
26502;SDS011;14177;51.520;6.764;2023-08-06T08:32:15;7.47;;;2.65;;
26502;SDS011;14177;51.520;6.764;2023-08-06T08:34:42;6.07;;;2.25;;
26502;SDS011;14177;51.520;6.764;2023-08-06T08:37:10;5.10;;;2.97;;
26502;SDS011;14177;51.520;6.764;2023-08-06T08:39:37;5.78;;;3.10;;
26502;SDS011;14177;51.520;6.764;2023-08-06T08:42:04;7.00;;;3.85;;
26502;SDS011;14177;51.520;6.764;2023-08-06T08:44:33;8.20;;;4.50;;
26502;SDS011;14177;51.520;6.764;2023-08-06T08:47:03;4.60;;;2.60;;
26502;SDS011;14177;51.520;6.764;2023-08-06T08:49:36;8.23;;;2.75;;
26502;SDS011;14177;51.520;6.764;2023-08-06T08:52:04;3.53;;;1.88;;
26502;SDS011;14177;51.520;6.764;2023-08-06T08:54:37;2.53;;;1.42;;
26502;SDS011;14177;51.520;6.764;2023-08-06T08:57:06;5.55;;;2.20;;
26502;SDS011;14177;51.520;6.764;2023-08-06T08:59:33;1.65;;;1.20;;
26502;SDS011;14177;51.520;6.764;2023-08-06T09:02:01;4.97;;;1.30;;
26502;SDS011;14177;51.520;6.764;2023-08-06T09:04:29;5.10;;;1.38;;
26502;SDS011;14177;51.520;6.764;2023-08-06T09:07:03;4.28;;;1.40;;
26502;SDS011;14177;51.520;6.764;2023-08-06T09:09:34;2.83;;;1.30;;
26502;SDS011;14177;51.520;6.764;2023-08-06T09:12:22;2.65;;;1.38;;
26502;SDS011;14177;51.520;6.764;2023-08-06T09:14:49;2.40;;;1.30;;
26502;SDS011;14177;51.520;6.764;2023-08-06T09:17:16;3.30;;;1.40;;
26502;SDS011;14177;51.520;6.764;2023-08-06T09:19:46;4.22;;;1.10;;
26502;SDS011;14177;51.520;6.764;2023-08-06T09:22:15;5.20;;;1.30;;
26502;SDS011;14177;51.520;6.764;2023-08-06T09:24:42;3.40;;;1.23;;
26502;SDS011;14177;51.520;6.764;2023-08-06T09:27:13;3.97;;;1.40;;
26502;SDS011;14177;51.520;6.764;2023-08-06T09:29:42;4.50;;;1.20;;
26502;SDS011;14177;51.520;6.764;2023-08-06T09:32:12;4.97;;;1.65;;
26502;SDS011;14177;51.520;6.764;2023-08-06T09:34:41;2.95;;;1.65;;
26502;SDS011;14177;51.520;6.764;2023-08-06T09:37:09;2.08;;;1.50;;
26502;SDS011;14177;51.520;6.764;2023-08-06T09:39:38;3.97;;;1.80;;
26502;SDS011;14177;51.520;6.764;2023-08-06T09:42:09;5.72;;;2.65;;
26502;SDS011;14177;51.520;6.764;2023-08-06T09:44:36;4.43;;;3.30;;
26502;SDS011;14177;51.520;6.764;2023-08-06T09:47:06;6.18;;;4.60;;
26502;SDS011;14177;51.520;6.764;2023-08-06T09:52:00;7.70;;;5.35;;
26502;SDS011;14177;51.520;6.764;2023-08-06T09:54:28;7.60;;;5.35;;
26502;SDS011;14177;51.520;6.764;2023-08-06T09:56:56;5.53;;;5.03;;
26502;SDS011;14177;51.520;6.764;2023-08-06T09:59:23;7.93;;;5.90;;
26502;SDS011;14177;51.520;6.764;2023-08-06T10:01:51;8.40;;;6.63;;
26502;SDS011;14177;51.520;6.764;2023-08-06T10:04:20;7.45;;;6.40;;
26502;SDS011;14177;51.520;6.764;2023-08-06T10:06:51;9.13;;;6.63;;
26502;SDS011;14177;51.520;6.764;2023-08-06T10:09:19;10.55;;;7.03;;
26502;SDS011;14177;51.520;6.764;2023-08-06T10:11:48;8.77;;;7.07;;
26502;SDS011;14177;51.520;6.764;2023-08-06T10:14:21;9.77;;;6.97;;
26502;SDS011;14177;51.520;6.764;2023-08-06T10:16:53;10.18;;;6.80;;
26502;SDS011;14177;51.520;6.764;2023-08-06T10:19:24;8.38;;;6.95;;
26502;SDS011;14177;51.520;6.764;2023-08-06T10:22:13;8.10;;;6.93;;
26502;SDS011;14177;51.520;6.764;2023-08-06T10:24:48;9.98;;;7.03;;
26502;SDS011;14177;51.520;6.764;2023-08-06T10:27:30;7.75;;;6.78;;
26502;SDS011;14177;51.520;6.764;2023-08-06T10:33:02;9.98;;;5.32;;
26502;SDS011;14177;51.520;6.764;2023-08-06T10:38:08;10.00;;;6.03;;
26502;SDS011;14177;51.520;6.764;2023-08-06T10:40:40;6.10;;;5.38;;
26502;SDS011;14177;51.520;6.764;2023-08-06T10:43:24;6.15;;;5.38;;
26502;SDS011;14177;51.520;6.764;2023-08-06T10:45:58;6.65;;;5.95;;
26502;SDS011;14177;51.520;6.764;2023-08-06T10:48:39;5.68;;;5.18;;
26502;SDS011;14177;51.520;6.764;2023-08-06T10:51:08;6.72;;;5.45;;
26502;SDS011;14177;51.520;6.764;2023-08-06T10:53:38;5.75;;;5.03;;
26502;SDS011;14177;51.520;6.764;2023-08-06T10:56:17;6.53;;;5.50;;
26502;SDS011;14177;51.520;6.764;2023-08-06T10:58:50;3.72;;;2.33;;
26502;SDS011;14177;51.520;6.764;2023-08-06T11:01:23;2.58;;;1.65;;
26502;SDS011;14177;51.520;6.764;2023-08-06T11:03:51;2.70;;;1.83;;
26502;SDS011;14177;51.520;6.764;2023-08-06T11:06:20;1.90;;;1.52;;
26502;SDS011;14177;51.520;6.764;2023-08-06T11:08:50;2.30;;;1.08;;
26502;SDS011;14177;51.520;6.764;2023-08-06T11:11:19;1.63;;;1.20;;
26502;SDS011;14177;51.520;6.764;2023-08-06T11:13:49;0.73;;;0.70;;
26502;SDS011;14177;51.520;6.764;2023-08-06T11:16:19;0.75;;;0.52;;
26502;SDS011;14177;51.520;6.764;2023-08-06T11:18:50;1.98;;;0.63;;
26502;SDS011;14177;51.520;6.764;2023-08-06T11:21:19;1.05;;;0.57;;
26502;SDS011;14177;51.520;6.764;2023-08-06T11:23:47;0.70;;;0.40;;
26502;SDS011;14177;51.520;6.764;2023-08-06T11:26:18;1.17;;;0.70;;
26502;SDS011;14177;51.520;6.764;2023-08-06T11:28:47;3.67;;;0.60;;
26502;SDS011;14177;51.520;6.764;2023-08-06T11:31:20;1.20;;;0.68;;
26502;SDS011;14177;51.520;6.764;2023-08-06T11:33:55;0.82;;;0.70;;
26502;SDS011;14177;51.520;6.764;2023-08-06T11:36:33;1.63;;;0.65;;
26502;SDS011;14177;51.520;6.764;2023-08-06T11:39:08;0.75;;;0.60;;
26502;SDS011;14177;51.520;6.764;2023-08-06T11:41:40;0.52;;;0.50;;
26502;SDS011;14177;51.520;6.764;2023-08-06T11:44:21;1.25;;;0.60;;
26502;SDS011;14177;51.520;6.764;2023-08-06T11:46:57;2.28;;;1.00;;
26502;SDS011;14177;51.520;6.764;2023-08-06T11:49:38;1.20;;;0.98;;
26502;SDS011;14177;51.520;6.764;2023-08-06T11:52:08;1.38;;;1.23;;
26502;SDS011;14177;51.520;6.764;2023-08-06T11:55:08;2.17;;;0.80;;
26502;SDS011;14177;51.520;6.764;2023-08-06T11:57:53;0.77;;;0.73;;
26502;SDS011;14177;51.520;6.764;2023-08-06T12:00:23;2.15;;;0.57;;
26502;SDS011;14177;51.520;6.764;2023-08-06T12:03:23;0.35;;;0.35;;
26502;SDS011;14177;51.520;6.764;2023-08-06T12:06:05;0.50;;;0.40;;
26502;SDS011;14177;51.520;6.764;2023-08-06T12:08:33;1.73;;;0.40;;
26502;SDS011;14177;51.520;6.764;2023-08-06T12:11:00;0.60;;;0.30;;
26502;SDS011;14177;51.520;6.764;2023-08-06T12:13:27;1.35;;;0.30;;
26502;SDS011;14177;51.520;6.764;2023-08-06T12:15:55;0.77;;;0.40;;
26502;SDS011;14177;51.520;6.764;2023-08-06T12:18:23;0.50;;;0.35;;
26502;SDS011;14177;51.520;6.764;2023-08-06T12:20:50;0.65;;;0.43;;
26502;SDS011;14177;51.520;6.764;2023-08-06T12:23:17;0.43;;;0.35;;
26502;SDS011;14177;51.520;6.764;2023-08-06T12:25:44;2.25;;;0.40;;
26502;SDS011;14177;51.520;6.764;2023-08-06T12:28:11;0.30;;;0.30;;
26502;SDS011;14177;51.520;6.764;2023-08-06T12:30:39;0.50;;;0.40;;
26502;SDS011;14177;51.520;6.764;2023-08-06T12:33:09;0.57;;;0.40;;
26502;SDS011;14177;51.520;6.764;2023-08-06T12:35:37;4.32;;;0.57;;
26502;SDS011;14177;51.520;6.764;2023-08-06T12:38:04;0.93;;;0.77;;
26502;SDS011;14177;51.520;6.764;2023-08-06T12:40:32;1.02;;;0.82;;
26502;SDS011;14177;51.520;6.764;2023-08-06T12:43:05;1.02;;;0.73;;
26502;SDS011;14177;51.520;6.764;2023-08-06T12:45:32;0.80;;;0.60;;
26502;SDS011;14177;51.520;6.764;2023-08-06T12:47:59;0.70;;;0.60;;
26502;SDS011;14177;51.520;6.764;2023-08-06T12:50:26;0.40;;;0.40;;
26502;SDS011;14177;51.520;6.764;2023-08-06T12:52:53;0.50;;;0.50;;
26502;SDS011;14177;51.520;6.764;2023-08-06T12:55:20;1.15;;;0.60;;
26502;SDS011;14177;51.520;6.764;2023-08-06T12:57:47;0.95;;;0.50;;
26502;SDS011;14177;51.520;6.764;2023-08-06T13:00:25;0.90;;;0.68;;
26502;SDS011;14177;51.520;6.764;2023-08-06T13:02:53;1.65;;;1.08;;
26502;SDS011;14177;51.520;6.764;2023-08-06T13:05:20;1.00;;;0.90;;
26502;SDS011;14177;51.520;6.764;2023-08-06T13:07:48;1.20;;;0.98;;
26502;SDS011;14177;51.520;6.764;2023-08-06T13:10:16;3.15;;;0.90;;
26502;SDS011;14177;51.520;6.764;2023-08-06T13:12:43;1.15;;;0.98;;
26502;SDS011;14177;51.520;6.764;2023-08-06T13:15:10;1.77;;;0.98;;
26502;SDS011;14177;51.520;6.764;2023-08-06T13:17:38;1.40;;;1.20;;
26502;SDS011;14177;51.520;6.764;2023-08-06T13:20:05;2.03;;;1.20;;
26502;SDS011;14177;51.520;6.764;2023-08-06T13:22:33;1.67;;;1.25;;
26502;SDS011;14177;51.520;6.764;2023-08-06T13:25:00;2.05;;;1.30;;
26502;SDS011;14177;51.520;6.764;2023-08-06T13:27:28;3.35;;;1.50;;
26502;SDS011;14177;51.520;6.764;2023-08-06T13:29:55;1.80;;;1.33;;
26502;SDS011;14177;51.520;6.764;2023-08-06T13:32:21;2.55;;;1.35;;
26502;SDS011;14177;51.520;6.764;2023-08-06T13:34:49;3.35;;;1.73;;
26502;SDS011;14177;51.520;6.764;2023-08-06T13:37:16;5.25;;;1.55;;
26502;SDS011;14177;51.520;6.764;2023-08-06T13:39:43;4.90;;;1.73;;
26502;SDS011;14177;51.520;6.764;2023-08-06T13:42:10;2.90;;;1.73;;
26502;SDS011;14177;51.520;6.764;2023-08-06T13:44:37;2.88;;;1.80;;
26502;SDS011;14177;51.520;6.764;2023-08-06T13:47:04;3.33;;;1.70;;
26502;SDS011;14177;51.520;6.764;2023-08-06T13:49:31;3.55;;;1.98;;
26502;SDS011;14177;51.520;6.764;2023-08-06T13:51:58;3.80;;;1.60;;
26502;SDS011;14177;51.520;6.764;2023-08-06T13:54:45;5.13;;;2.15;;
26502;SDS011;14177;51.520;6.764;2023-08-06T13:57:12;5.32;;;2.00;;
26502;SDS011;14177;51.520;6.764;2023-08-06T13:59:39;2.80;;;1.70;;
26502;SDS011;14177;51.520;6.764;2023-08-06T14:02:07;3.65;;;2.15;;
26502;SDS011;14177;51.520;6.764;2023-08-06T14:04:34;4.38;;;2.10;;
26502;SDS011;14177;51.520;6.764;2023-08-06T14:07:01;2.92;;;2.00;;
26502;SDS011;14177;51.520;6.764;2023-08-06T14:09:29;3.30;;;2.15;;
26502;SDS011;14177;51.520;6.764;2023-08-06T14:11:56;4.03;;;2.20;;
26502;SDS011;14177;51.520;6.764;2023-08-06T14:14:23;4.50;;;1.65;;
26502;SDS011;14177;51.520;6.764;2023-08-06T14:16:53;5.75;;;2.30;;
26502;SDS011;14177;51.520;6.764;2023-08-06T14:19:21;2.28;;;1.70;;
26502;SDS011;14177;51.520;6.764;2023-08-06T14:21:51;2.17;;;1.50;;
26502;SDS011;14177;51.520;6.764;2023-08-06T14:24:18;4.28;;;1.52;;
26502;SDS011;14177;51.520;6.764;2023-08-06T14:26:45;1.58;;;1.17;;
26502;SDS011;14177;51.520;6.764;2023-08-06T14:29:13;4.03;;;1.50;;
26502;SDS011;14177;51.520;6.764;2023-08-06T14:31:40;2.97;;;1.70;;
26502;SDS011;14177;51.520;6.764;2023-08-06T14:34:07;2.30;;;1.67;;
26502;SDS011;14177;51.520;6.764;2023-08-06T14:36:34;2.33;;;1.30;;
26502;SDS011;14177;51.520;6.764;2023-08-06T14:39:02;2.47;;;1.67;;
26502;SDS011;14177;51.520;6.764;2023-08-06T14:41:29;2.63;;;1.80;;
26502;SDS011;14177;51.520;6.764;2023-08-06T14:43:56;4.95;;;1.60;;
26502;SDS011;14177;51.520;6.764;2023-08-06T14:46:23;1.40;;;1.27;;
26502;SDS011;14177;51.520;6.764;2023-08-06T14:48:50;2.05;;;1.48;;
26502;SDS011;14177;51.520;6.764;2023-08-06T14:51:17;1.50;;;1.27;;
26502;SDS011;14177;51.520;6.764;2023-08-06T14:53:47;2.22;;;1.52;;
26502;SDS011;14177;51.520;6.764;2023-08-06T14:56:14;3.17;;;1.52;;
26502;SDS011;14177;51.520;6.764;2023-08-06T14:58:42;3.00;;;1.75;;
26502;SDS011;14177;51.520;6.764;2023-08-06T15:01:09;2.20;;;1.35;;
26502;SDS011;14177;51.520;6.764;2023-08-06T15:03:36;2.38;;;1.60;;
26502;SDS011;14177;51.520;6.764;2023-08-06T15:06:03;2.47;;;1.50;;
26502;SDS011;14177;51.520;6.764;2023-08-06T15:08:30;3.65;;;1.45;;